createdAt,value
2019-06-27T00:02:19.585Z,50.80
2019-06-27T00:04:50.128Z,50.50
2019-06-27T00:07:20.772Z,50.60
2019-06-27T00:09:51.169Z,49.80
2019-06-27T00:12:22.315Z,48.60
2019-06-27T00:14:53.049Z,47.30
2019-06-27T00:17:23.463Z,46.80
2019-06-27T00:19:53.847Z,46.10
2019-06-27T00:22:24.537Z,46.00
2019-06-27T00:24:54.916Z,45.70
2019-06-27T00:27:25.326Z,45.50
2019-06-27T00:29:56.035Z,45.40
2019-06-27T00:32:26.759Z,45.20
2019-06-27T00:34:57.492Z,46.00
2019-06-27T00:37:27.899Z,44.50
2019-06-27T00:39:58.524Z,44.00
2019-06-27T00:42:29.285Z,43.90
2019-06-27T00:44:59.921Z,43.50
2019-06-27T00:47:30.658Z,42.70
2019-06-27T00:50:01.390Z,42.60
2019-06-27T00:52:32.127Z,41.80
2019-06-27T00:55:02.860Z,41.70
2019-06-27T00:57:33.342Z,42.10
2019-06-27T01:00:05.657Z,40.80
2019-06-27T01:02:36.709Z,40.60
2019-06-27T01:05:09.251Z,40.60
2019-06-27T01:07:39.922Z,40.80
2019-06-27T01:10:11.211Z,40.60
2019-06-27T01:12:41.894Z,41.20
2019-06-27T01:15:12.778Z,40.20
2019-06-27T01:17:43.470Z,40.00
2019-06-27T01:20:14.264Z,39.60
2019-06-27T01:22:44.950Z,39.70
2019-06-27T01:25:16.078Z,39.10
2019-06-27T01:27:46.811Z,38.80
2019-06-27T01:30:18.541Z,37.30
2019-06-27T01:32:48.957Z,36.60
2019-06-27T01:35:19.839Z,36.50
2019-06-27T01:37:50.590Z,36.50
2019-06-27T01:40:22.015Z,36.40
2019-06-27T01:42:52.759Z,36.50
2019-06-27T01:45:31.386Z,36.80
2019-06-27T01:48:01.775Z,36.70
2019-06-27T01:50:32.441Z,37.30
2019-06-27T01:53:02.846Z,37.60
2019-06-27T01:55:33.497Z,38.00
2019-06-27T01:58:03.919Z,38.40
2019-06-27T02:00:34.559Z,38.80
2019-06-27T02:03:05.392Z,38.90
2019-06-27T02:05:36.131Z,39.30
2019-06-27T02:08:07.032Z,39.40
2019-06-27T02:10:37.721Z,40.20
2019-06-27T02:13:08.441Z,40.00
2019-06-27T02:15:38.986Z,40.40
2019-06-27T02:18:09.711Z,40.30
2019-06-27T02:20:40.539Z,41.30
2019-06-27T02:23:11.009Z,41.90
2019-06-27T02:25:41.768Z,41.60
2019-06-27T02:28:12.539Z,41.40
2019-06-27T02:30:44.832Z,41.60
2019-06-27T02:33:14.800Z,42.40
2019-06-27T02:35:45.361Z,41.80
2019-06-27T02:38:16.094Z,41.80
2019-06-27T02:40:46.821Z,41.90
2019-06-27T02:43:18.680Z,42.00
2019-06-27T02:45:49.445Z,42.20
2019-06-27T02:48:20.005Z,42.40
2019-06-27T02:50:50.385Z,42.50
2019-06-27T02:53:21.109Z,42.70
2019-06-27T02:55:51.847Z,42.90
2019-06-27T02:58:30.869Z,42.90
2019-06-27T03:00:54.649Z,43.30
2019-06-27T03:03:25.069Z,43.40
2019-06-27T03:05:55.452Z,43.60
2019-06-27T03:08:26.134Z,43.70
2019-06-27T03:10:56.591Z,43.90
2019-06-27T03:13:27.003Z,44.00
2019-06-27T03:15:57.391Z,44.20
2019-06-27T03:18:27.796Z,44.50
2019-06-27T03:20:58.183Z,44.60
2019-06-27T03:23:28.581Z,44.70
2019-06-27T03:25:59.086Z,45.00
2019-06-27T03:28:50.017Z,45.20
2019-06-27T03:31:01.894Z,45.40
2019-06-27T03:33:32.290Z,45.60
2019-06-27T03:36:02.689Z,45.80
2019-06-27T03:38:33.414Z,46.00
2019-06-27T03:41:04.187Z,46.30
2019-06-27T03:43:34.881Z,46.50
2019-06-27T03:46:05.271Z,47.00
2019-06-27T03:48:35.947Z,47.00
2019-06-27T03:51:06.679Z,47.20
2019-06-27T03:53:37.124Z,47.80
2019-06-27T03:56:07.523Z,47.50
2019-06-27T03:58:38.480Z,47.80
2019-06-27T04:01:10.124Z,48.30
2019-06-27T04:03:42.992Z,48.40
2019-06-27T04:06:12.958Z,49.00
2019-06-27T04:08:43.662Z,49.00
2019-06-27T04:11:14.443Z,49.50
2019-06-27T04:13:44.785Z,49.50
2019-06-27T04:16:15.481Z,50.00
2019-06-27T04:18:46.093Z,50.10
2019-06-27T04:21:16.929Z,50.80
2019-06-27T04:23:47.660Z,50.80
2019-06-27T04:26:18.316Z,50.90
2019-06-27T04:28:48.744Z,50.70
2019-06-27T04:31:19.454Z,51.40
2019-06-27T04:33:50.185Z,51.80
2019-06-27T04:36:20.593Z,51.90
2019-06-27T04:38:51.253Z,52.20
2019-06-27T04:41:21.810Z,52.40
2019-06-27T04:43:52.202Z,52.70
2019-06-27T04:46:22.589Z,53.00
2019-06-27T04:48:52.959Z,53.10
2019-06-27T04:51:23.356Z,53.30
2019-06-27T04:53:53.738Z,54.30
2019-06-27T04:56:25.191Z,54.00
2019-06-27T04:58:55.557Z,54.60
2019-06-27T05:01:26.033Z,55.00
2019-06-27T05:03:56.416Z,54.90
2019-06-27T05:06:26.835Z,54.80
2019-06-27T05:08:57.212Z,54.20
2019-06-27T05:11:27.617Z,53.70
2019-06-27T05:13:57.992Z,52.90
2019-06-27T05:16:28.684Z,51.80
2019-06-27T05:18:59.424Z,50.90
2019-06-27T05:21:30.164Z,50.70
2019-06-27T05:24:00.551Z,49.80
2019-06-27T05:26:31.316Z,49.30
2019-06-27T05:29:01.954Z,48.60
2019-06-27T05:31:32.683Z,47.80
2019-06-27T05:34:03.292Z,47.30
2019-06-27T05:36:33.779Z,46.80
2019-06-27T05:39:05.726Z,46.00
2019-06-27T05:41:36.088Z,45.80
2019-06-27T05:44:06.471Z,45.60
2019-06-27T05:46:36.856Z,45.10
2019-06-27T05:49:07.245Z,45.00
2019-06-27T05:51:38.044Z,44.70
2019-06-27T05:54:08.435Z,44.40
2019-06-27T05:56:38.824Z,44.70
2019-06-27T05:59:09.662Z,44.70
2019-06-27T06:01:40.377Z,44.60
2019-06-27T06:04:11.106Z,44.30
2019-06-27T06:06:41.740Z,43.80
2019-06-27T06:09:12.125Z,43.50
2019-06-27T06:11:42.506Z,43.00
2019-06-27T06:14:13.140Z,42.60
2019-06-27T06:16:43.518Z,42.30
2019-06-27T06:19:14.192Z,42.10
2019-06-27T06:21:44.632Z,41.90
2019-06-27T06:24:15.025Z,41.60
2019-06-27T06:26:45.406Z,41.80
2019-06-27T06:29:15.790Z,41.80
2019-06-27T06:31:49.281Z,41.90
2019-06-27T06:34:18.588Z,42.60
2019-06-27T06:36:49.227Z,41.80
2019-06-27T06:39:19.705Z,41.10
2019-06-27T06:41:50.098Z,40.80
2019-06-27T06:44:20.488Z,40.10
2019-06-27T06:46:50.963Z,40.60
2019-06-27T06:49:21.355Z,40.50
2019-06-27T06:51:51.739Z,40.20
2019-06-27T06:54:22.138Z,39.50
2019-06-27T06:56:52.526Z,39.50
2019-06-27T06:59:22.918Z,39.10
2019-06-27T07:01:53.298Z,38.50
2019-06-27T07:04:24.040Z,38.10
2019-06-27T07:06:54.417Z,37.80
2019-06-27T07:09:25.197Z,37.20
2019-06-27T07:11:55.927Z,36.70
2019-06-27T07:14:27.252Z,36.40
2019-06-27T07:16:58.011Z,36.20
2019-06-27T07:19:28.403Z,36.50
2019-06-27T07:21:58.830Z,36.10
2019-06-27T07:24:29.602Z,35.00
2019-06-27T07:26:59.988Z,34.90
2019-06-27T07:29:30.364Z,35.60
2019-06-27T07:32:00.742Z,35.10
2019-06-27T07:34:31.136Z,35.20
2019-06-27T07:37:01.564Z,35.00
2019-06-27T07:39:31.958Z,35.80
2019-06-27T07:42:02.331Z,34.60
2019-06-27T07:44:33.021Z,35.30
2019-06-27T07:47:03.755Z,34.10
2019-06-27T07:49:34.143Z,33.90
2019-06-27T07:52:04.911Z,32.60
2019-06-27T07:54:35.654Z,32.10
2019-06-27T07:57:06.386Z,31.20
2019-06-27T07:59:37.120Z,31.50
2019-06-27T08:02:07.678Z,31.90
2019-06-27T08:04:38.382Z,32.10
2019-06-27T08:07:08.762Z,32.10
2019-06-27T08:09:39.160Z,32.50
2019-06-27T08:12:09.588Z,31.80
2019-06-27T08:14:39.990Z,31.60
2019-06-27T08:17:10.443Z,30.70
2019-06-27T08:19:40.861Z,31.40
2019-06-27T08:22:11.241Z,31.40
2019-06-27T08:24:41.900Z,31.00
2019-06-27T08:27:12.297Z,31.30
2019-06-27T08:29:42.960Z,31.40
2019-06-27T08:32:13.711Z,31.50
2019-06-27T08:34:44.435Z,31.70
2019-06-27T08:37:14.815Z,31.30
2019-06-27T08:39:45.493Z,30.50
2019-06-27T08:42:15.887Z,30.20
2019-06-27T08:44:46.555Z,30.00
2019-06-27T08:47:16.952Z,29.80
2019-06-27T08:49:47.616Z,29.90
2019-06-27T08:52:18.358Z,29.30
2019-06-27T08:54:49.093Z,29.40
2019-06-27T08:57:19.815Z,29.10
2019-06-27T08:59:50.560Z,29.10
2019-06-27T09:02:20.961Z,29.10
2019-06-27T09:04:51.331Z,27.70
2019-06-27T09:07:22.096Z,28.10
2019-06-27T09:09:52.499Z,28.00
2019-06-27T09:12:23.510Z,28.10
2019-06-27T09:14:53.966Z,27.20
2019-06-27T09:17:24.361Z,27.10
2019-06-27T09:19:54.736Z,26.60
2019-06-27T09:22:25.424Z,26.80
2019-06-27T09:24:55.805Z,27.40
2019-06-27T09:27:26.493Z,28.20
2019-06-27T09:29:57.110Z,27.90
2019-06-27T09:32:27.846Z,27.50
2019-06-27T09:34:59.301Z,28.00
2019-06-27T09:37:29.694Z,27.60
2019-06-27T09:40:00.363Z,27.30
2019-06-27T09:42:30.761Z,27.80
2019-06-27T09:45:01.144Z,28.30
2019-06-27T09:47:31.845Z,27.40
2019-06-27T09:50:02.241Z,27.30
2019-06-27T09:52:32.628Z,27.30
2019-06-27T09:55:03.275Z,27.40
2019-06-27T09:57:33.668Z,27.30
2019-06-27T10:00:08.494Z,27.10
2019-06-27T10:02:42.182Z,27.00
2019-06-27T10:05:11.700Z,27.30
2019-06-27T10:07:42.091Z,26.80
2019-06-27T10:10:14.675Z,27.10
2019-06-27T10:12:45.065Z,26.90
2019-06-27T10:15:15.782Z,27.10
2019-06-27T10:17:46.192Z,27.00
2019-06-27T10:20:18.474Z,26.60
2019-06-27T10:22:48.855Z,26.00
2019-06-27T10:25:19.645Z,25.90
2019-06-27T10:27:50.355Z,26.40
2019-06-27T10:30:21.371Z,26.20
2019-06-27T10:32:58.899Z,26.20
2019-06-27T10:35:23.922Z,25.80
2019-06-27T10:37:54.323Z,25.20
2019-06-27T10:40:25.037Z,25.30
2019-06-27T10:42:55.436Z,25.50
2019-06-27T10:45:25.822Z,25.10
2019-06-27T10:47:56.651Z,25.40
2019-06-27T10:50:27.384Z,25.40
2019-06-27T10:52:57.777Z,25.60
2019-06-27T10:55:28.156Z,26.60
2019-06-27T10:57:58.550Z,26.60
2019-06-27T11:00:28.955Z,26.20
2019-06-27T11:03:14.390Z,26.10
2019-06-27T11:05:31.408Z,25.00
2019-06-27T11:08:01.796Z,26.20
2019-06-27T11:10:32.181Z,25.10
2019-06-27T11:13:02.878Z,25.20
2019-06-27T11:15:33.326Z,24.60
2019-06-27T11:18:03.714Z,24.90
2019-06-27T11:20:35.243Z,24.40
2019-06-27T11:23:05.910Z,23.30
2019-06-27T11:25:36.542Z,23.50
2019-06-27T11:28:10.009Z,24.20
2019-06-27T11:30:39.063Z,24.60
2019-06-27T11:33:09.508Z,24.20
2019-06-27T11:35:40.207Z,23.70
2019-06-27T11:38:11.232Z,23.00
2019-06-27T11:40:41.695Z,23.20
2019-06-27T11:43:12.394Z,22.40
2019-06-27T11:45:43.137Z,22.10
2019-06-27T11:48:13.862Z,21.90
2019-06-27T11:50:44.249Z,22.70
2019-06-27T11:53:14.933Z,22.40
2019-06-27T11:55:45.669Z,21.90
2019-06-27T11:58:16.396Z,22.30
2019-06-27T12:00:47.137Z,22.40
2019-06-27T12:03:17.875Z,22.50
2019-06-27T12:05:48.703Z,22.10
2019-06-27T12:08:19.109Z,21.70
2019-06-27T12:10:49.503Z,22.10
2019-06-27T12:13:19.881Z,22.70
2019-06-27T12:15:51.675Z,21.80
2019-06-27T12:18:22.579Z,21.70
2019-06-27T12:20:53.215Z,22.10
2019-06-27T12:23:23.604Z,21.90
2019-06-27T12:25:54.000Z,21.20
2019-06-27T12:28:24.565Z,21.90
2019-06-27T12:30:54.950Z,21.40
2019-06-27T12:33:25.353Z,21.40
2019-06-27T12:35:55.722Z,21.30
2019-06-27T12:38:26.411Z,21.40
2019-06-27T12:40:57.251Z,21.60
2019-06-27T12:43:27.660Z,21.70
2019-06-27T12:45:58.050Z,22.40
2019-06-27T12:48:28.840Z,22.00
2019-06-27T12:50:59.576Z,22.20
2019-06-27T12:53:31.283Z,21.20
2019-06-27T12:56:01.860Z,20.60
2019-06-27T12:58:32.488Z,20.70
2019-06-27T13:01:02.922Z,20.30
2019-06-27T13:03:33.274Z,19.80
2019-06-27T13:06:03.804Z,19.80
2019-06-27T13:08:34.195Z,19.70
2019-06-27T13:11:04.577Z,20.10
2019-06-27T13:13:36.028Z,20.50
2019-06-27T13:16:06.713Z,20.90
2019-06-27T13:18:37.555Z,20.80
2019-06-27T13:21:08.290Z,20.90
2019-06-27T13:23:38.680Z,20.80
2019-06-27T13:26:09.341Z,20.10
2019-06-27T13:28:40.104Z,20.40
2019-06-27T13:31:11.431Z,20.00
2019-06-27T13:33:42.175Z,20.70
2019-06-27T13:36:12.177Z,20.50
2019-06-27T13:38:42.482Z,20.80
2019-06-27T13:41:12.881Z,20.10
2019-06-27T13:43:43.254Z,19.80
2019-06-27T13:46:13.641Z,19.50
2019-06-27T13:48:44.319Z,19.70
2019-06-27T13:51:15.069Z,19.20
2019-06-27T13:53:45.430Z,19.40
2019-06-27T13:56:16.114Z,20.10
2019-06-27T13:58:46.489Z,19.60
2019-06-27T14:01:17.317Z,20.00
2019-06-27T14:03:49.698Z,19.30
2019-06-27T14:06:20.199Z,19.30
2019-06-27T14:08:51.315Z,19.70
2019-06-27T14:11:22.262Z,19.60
2019-06-27T14:13:52.994Z,19.60
2019-06-27T14:16:23.392Z,19.70
2019-06-27T14:18:53.774Z,19.40
2019-06-27T14:21:24.486Z,18.60
2019-06-27T14:23:55.119Z,19.10
2019-06-27T14:26:24.896Z,18.70
2019-06-27T14:28:55.216Z,19.50
2019-06-27T14:31:25.604Z,18.40
2019-06-27T14:33:55.986Z,18.10
2019-06-27T14:36:26.382Z,18.10
2019-06-27T14:38:56.753Z,18.10
2019-06-27T14:41:27.137Z,17.90
2019-06-27T14:43:57.815Z,18.00
2019-06-27T14:46:28.552Z,18.00
2019-06-27T14:48:58.934Z,18.90
2019-06-27T14:51:29.610Z,17.90
2019-06-27T14:54:00.240Z,18.00
2019-06-27T14:56:30.690Z,17.60
2019-06-27T14:59:01.352Z,18.00
2019-06-27T15:01:32.037Z,17.60
2019-06-27T15:04:02.776Z,18.00
2019-06-27T15:06:33.543Z,18.10
2019-06-27T15:09:04.712Z,17.50
2019-06-27T15:11:35.385Z,18.10
2019-06-27T15:14:06.125Z,18.40
2019-06-27T15:16:36.516Z,18.20
2019-06-27T15:19:07.183Z,18.20
2019-06-27T15:21:38.750Z,17.70
2019-06-27T15:24:09.100Z,17.80
2019-06-27T15:26:40.465Z,17.80
2019-06-27T15:29:10.846Z,17.60
2019-06-27T15:31:41.256Z,17.90
2019-06-27T15:34:11.900Z,18.20
2019-06-27T15:36:42.688Z,18.00
2019-06-27T15:39:13.028Z,17.80
2019-06-27T15:41:43.692Z,17.70
2019-06-27T15:44:15.224Z,17.70
2019-06-27T15:46:45.625Z,17.90
2019-06-27T15:49:16.242Z,18.30
2019-06-27T15:51:46.630Z,17.80
2019-06-27T15:54:17.263Z,18.30
2019-06-27T15:56:47.902Z,17.70
2019-06-27T15:59:18.281Z,18.50
2019-06-27T16:01:48.961Z,18.10
2019-06-27T16:04:30.774Z,17.60
2019-06-27T16:06:51.753Z,17.50
2019-06-27T16:09:22.131Z,17.70
2019-06-27T16:11:52.629Z,17.80
2019-06-27T16:14:23.120Z,17.80
2019-06-27T16:16:53.680Z,17.80
2019-06-27T16:19:24.057Z,18.10
2019-06-27T16:21:54.700Z,18.80
2019-06-27T16:24:25.081Z,18.40
2019-06-27T16:26:55.797Z,18.10
2019-06-27T16:29:26.518Z,18.40
2019-06-27T16:31:57.257Z,18.50
2019-06-27T16:34:29.135Z,18.50
2019-06-27T16:36:59.678Z,18.70
2019-06-27T16:39:30.066Z,19.10
2019-06-27T16:42:00.711Z,18.90
2019-06-27T16:44:31.098Z,18.90
2019-06-27T16:47:01.566Z,19.20
2019-06-27T16:49:32.308Z,19.50
2019-06-27T16:52:02.703Z,19.70
2019-06-27T16:54:33.083Z,20.00
2019-06-27T16:57:03.803Z,20.30
2019-06-27T16:59:34.174Z,20.80
2019-06-27T17:02:07.040Z,20.80
2019-06-27T17:04:36.652Z,20.90
2019-06-27T17:07:07.042Z,21.00
2019-06-27T17:09:37.769Z,21.10
2019-06-27T17:12:08.510Z,21.60
2019-06-27T17:14:39.233Z,22.40
2019-06-27T17:17:09.984Z,22.00
2019-06-27T17:19:40.714Z,22.40
2019-06-27T17:22:11.093Z,22.80
2019-06-27T17:24:41.483Z,23.20
2019-06-27T17:27:11.880Z,23.20
2019-06-27T17:29:42.258Z,23.40
2019-06-27T17:32:12.692Z,23.60
2019-06-27T17:34:43.132Z,23.70
2019-06-27T17:37:13.798Z,23.70
2019-06-27T17:39:44.190Z,23.70
2019-06-27T17:42:14.580Z,23.70
2019-06-27T17:44:44.960Z,23.70
2019-06-27T17:47:15.353Z,23.90
2019-06-27T17:49:48.975Z,24.30
2019-06-27T17:52:17.867Z,24.20
2019-06-27T17:54:48.536Z,24.30
2019-06-27T17:57:19.264Z,24.50
2019-06-27T17:59:49.646Z,24.30
2019-06-27T18:02:20.327Z,24.30
2019-06-27T18:04:52.089Z,24.40
2019-06-27T18:07:22.529Z,24.90
2019-06-27T18:09:53.147Z,24.80
2019-06-27T18:12:23.644Z,24.70
2019-06-27T18:14:54.002Z,25.40
2019-06-27T18:17:32.957Z,25.10
2019-06-27T18:19:56.518Z,25.30
2019-06-27T18:22:27.292Z,25.60
2019-06-27T18:24:57.928Z,25.80
2019-06-27T18:27:28.700Z,25.80
2019-06-27T18:29:59.438Z,26.30
2019-06-27T18:32:30.166Z,26.50
2019-06-27T18:35:00.685Z,26.90
2019-06-27T18:37:31.532Z,27.10
2019-06-27T18:40:02.372Z,27.50
2019-06-27T18:42:33.104Z,27.40
2019-06-27T18:45:05.358Z,27.70
2019-06-27T18:47:36.107Z,28.00
2019-06-27T18:50:08.919Z,28.10
2019-06-27T18:52:40.545Z,28.30
2019-06-27T18:55:10.988Z,28.50
2019-06-27T18:57:41.723Z,28.60
2019-06-27T19:00:13.066Z,28.90
2019-06-27T19:02:43.792Z,29.00
2019-06-27T19:05:14.420Z,29.20
2019-06-27T19:07:46.311Z,29.30
2019-06-27T19:10:19.035Z,29.50
2019-06-27T19:12:49.417Z,29.80
2019-06-27T19:15:20.128Z,30.00
2019-06-27T19:17:50.873Z,30.00
2019-06-27T19:20:38.150Z,30.50
2019-06-27T19:23:13.326Z,30.70
2019-06-27T19:25:48.044Z,30.80
2019-06-27T19:28:18.695Z,31.20
2019-06-27T19:30:50.041Z,31.80
2019-06-27T19:33:20.776Z,32.00
2019-06-27T19:35:51.154Z,32.40
2019-06-27T19:38:21.544Z,32.90
2019-06-27T19:40:51.937Z,34.30
2019-06-27T19:43:27.746Z,34.80
2019-06-27T19:45:54.961Z,34.30
2019-06-27T19:48:25.598Z,34.90
2019-06-27T19:50:56.328Z,35.20
2019-06-27T19:53:26.715Z,36.10
2019-06-27T19:55:57.596Z,36.70
2019-06-27T19:58:27.987Z,36.30
2019-06-27T20:00:58.497Z,36.90
2019-06-27T20:03:28.859Z,37.00
2019-06-27T20:05:59.240Z,37.30
2019-06-27T20:08:29.630Z,37.20
2019-06-27T20:11:00.078Z,37.60
2019-06-27T20:13:30.505Z,37.90
2019-06-27T20:16:00.946Z,38.60
2019-06-27T20:18:31.323Z,39.00
2019-06-27T20:21:01.721Z,38.90
2019-06-27T20:23:32.097Z,39.60
2019-06-27T20:26:03.955Z,40.00
2019-06-27T20:28:34.706Z,40.20
2019-06-27T20:31:05.183Z,40.10
2019-06-27T20:33:35.538Z,40.80
2019-06-27T20:36:06.268Z,41.00
2019-06-27T20:38:36.643Z,41.00
2019-06-27T20:41:07.041Z,41.20
2019-06-27T20:43:37.415Z,41.60
2019-06-27T20:46:07.821Z,41.90
2019-06-27T20:48:38.184Z,42.20
2019-06-27T20:51:09.966Z,42.50
2019-06-27T20:53:40.341Z,42.80
2019-06-27T20:56:11.032Z,43.60
2019-06-27T20:58:41.477Z,43.50
2019-06-27T21:01:11.922Z,43.70
2019-06-27T21:03:42.607Z,44.10
2019-06-27T21:06:13.005Z,44.10
2019-06-27T21:08:51.243Z,44.60
2019-06-27T21:11:15.738Z,44.40
2019-06-27T21:13:46.123Z,44.70
2019-06-27T21:16:16.792Z,45.30
2019-06-27T21:18:47.169Z,45.10
2019-06-27T21:21:17.557Z,45.50
2019-06-27T21:23:47.932Z,45.50
2019-06-27T21:26:18.611Z,45.80
2019-06-27T21:28:50.258Z,45.60
2019-06-27T21:31:20.716Z,46.20
2019-06-27T21:33:51.439Z,46.30
2019-06-27T21:36:22.268Z,46.40
2019-06-27T21:39:06.663Z,46.40
2019-06-27T21:41:26.101Z,46.80
2019-06-27T21:43:56.863Z,46.90
2019-06-27T21:46:27.252Z,47.30
2019-06-27T21:48:57.985Z,47.60
2019-06-27T21:51:28.386Z,47.70
2019-06-27T21:53:59.172Z,48.70
2019-06-27T21:56:29.555Z,48.10
2019-06-27T21:59:00.205Z,48.40
2019-06-27T22:01:31.141Z,48.30
2019-06-27T22:04:01.944Z,48.70
2019-06-27T22:06:32.623Z,48.70
2019-06-27T22:09:04.781Z,48.90
2019-06-27T22:11:35.524Z,49.30
2019-06-27T22:14:06.254Z,49.40
2019-06-27T22:16:37.078Z,49.80
2019-06-27T22:19:08.275Z,50.60
2019-06-27T22:21:38.677Z,50.40
2019-06-27T22:24:09.396Z,50.40
2019-06-27T22:26:40.134Z,50.60
2019-06-27T22:29:10.524Z,50.80
2019-06-27T22:31:41.199Z,51.10
2019-06-27T22:34:12.334Z,51.30
2019-06-27T22:36:43.070Z,51.50
2019-06-27T22:39:40.273Z,51.40
2019-06-27T22:42:21.815Z,52.10
2019-06-27T22:45:10.428Z,51.50
2019-06-27T22:47:58.609Z,51.70
2019-06-27T22:50:50.050Z,51.80
2019-06-27T22:53:23.437Z,51.70
2019-06-27T22:55:55.184Z,51.80
2019-06-27T22:58:25.914Z,52.00
2019-06-27T23:00:56.555Z,52.00
2019-06-27T23:03:27.299Z,52.10
2019-06-27T23:05:57.664Z,52.30
2019-06-27T23:08:28.053Z,52.30
2019-06-27T23:10:58.782Z,52.50
2019-06-27T23:13:30.435Z,52.70
2019-06-27T23:16:00.824Z,52.60
2019-06-27T23:18:31.205Z,52.80
2019-06-27T23:21:01.590Z,52.50
2019-06-27T23:23:31.975Z,52.80
2019-06-27T23:26:02.676Z,53.10
2019-06-27T23:28:34.324Z,53.20
2019-06-27T23:31:04.703Z,53.30
2019-06-27T23:33:35.113Z,53.60
2019-06-27T23:36:05.477Z,53.80
2019-06-27T23:38:35.866Z,54.00
2019-06-27T23:41:06.240Z,54.10
2019-06-27T23:43:36.639Z,54.30
2019-06-27T23:46:08.673Z,54.40
2019-06-27T23:48:39.051Z,54.60
2019-06-27T23:51:09.438Z,54.60
2019-06-27T23:53:40.803Z,54.80
2019-06-27T23:56:11.175Z,54.70
2019-06-27T23:58:41.572Z,54.90
